Airfield :
LOGIN :

Register | Disclaimer

   EN    FR    IT 

 










Legend :    VFR   Marginal VFR   IFR   Intensive IFR   Very Intensive IFR
Visi :
Ceiling :
>= 8 km
>= 3000ft
5 to 8 km
1000 to 3000 ft
1500m to 5 km
500 to 1000 ft
800 to 1500m
200 to 500 ft
< 800m
< 200 ft
Symbols :   Thunderstorms  Fog  Heavy snow  Heavy precipitations  Wind > 20 kt
SIGMETs :     Misc.  Thunderstorms  Icing  Turbulence  Mountain Waves  Volcanic Ashes







- Airport Elevation : 37 ft


EGOW - Woodvale

CURRENT METAR :
  • 191150Z 13012KT 8000 HZ SCT010 OVC080 13/11 Q1001 GRN

EXPIRED METARs :
  • 191050Z 13008KT 7000 HZ SCT010 BKN080 12/10 Q1003 GRN
  • 190950Z 14012KT 7000 HZ SCT010 BKN080 11/10 Q1003 GRN

TAF TAF EGOW
Valid from the 19 at 12:00 until the 19 at 18:00 UTC


191019Z 1912/1918 15013KT 9999 SCT012
TEMPO 1912/1918 FEW012
No reported NOTAMs for that airfield.



MET'MAP, your aeronautical weather chart ! - Copyright ORBIFLY December 2007 - Disclaimer

ORBIFLY MET'MAP TEAM :

Programming & Development : Alexandra Zaïnal
Concept & Development : Baudouin d'Aumeries
Co-Development & Prog : Marc-Olivier Méhu
Technical & hardware support : Manuel Goepfert

Contact : metmap@orbifly.com




SOURCES & CREDITS :

   NOAA